sensor_id;sensor_type;location;lat;lon;timestamp;P1;durP1;ratioP1;P2;durP2;ratioP2
49578;SDS011;35483;50.828;3.228;2023-07-09T00:00:16;34.15;;;29.63;;
49578;SDS011;35483;50.828;3.228;2023-07-09T00:02:44;37.05;;;30.83;;
49578;SDS011;35483;50.828;3.228;2023-07-09T00:05:14;37.65;;;29.45;;
49578;SDS011;35483;50.828;3.228;2023-07-09T00:07:42;34.03;;;28.67;;
49578;SDS011;35483;50.828;3.228;2023-07-09T00:10:16;35.50;;;29.23;;
49578;SDS011;35483;50.828;3.228;2023-07-09T00:12:43;38.00;;;28.48;;
49578;SDS011;35483;50.828;3.228;2023-07-09T00:15:13;33.88;;;27.00;;
49578;SDS011;35483;50.828;3.228;2023-07-09T00:17:43;33.55;;;27.08;;
49578;SDS011;35483;50.828;3.228;2023-07-09T00:20:14;34.22;;;26.65;;
49578;SDS011;35483;50.828;3.228;2023-07-09T00:22:43;27.65;;;23.88;;
49578;SDS011;35483;50.828;3.228;2023-07-09T00:25:18;32.40;;;25.35;;
49578;SDS011;35483;50.828;3.228;2023-07-09T00:27:47;31.10;;;24.92;;
49578;SDS011;35483;50.828;3.228;2023-07-09T00:30:19;29.77;;;24.10;;
49578;SDS011;35483;50.828;3.228;2023-07-09T00:32:47;30.58;;;23.95;;
49578;SDS011;35483;50.828;3.228;2023-07-09T00:35:17;34.17;;;25.35;;
49578;SDS011;35483;50.828;3.228;2023-07-09T00:37:43;27.70;;;22.25;;
49578;SDS011;35483;50.828;3.228;2023-07-09T00:40:17;27.20;;;22.45;;
49578;SDS011;35483;50.828;3.228;2023-07-09T00:42:49;28.55;;;22.23;;
49578;SDS011;35483;50.828;3.228;2023-07-09T00:45:19;29.02;;;24.02;;
49578;SDS011;35483;50.828;3.228;2023-07-09T00:48:04;28.63;;;22.92;;
49578;SDS011;35483;50.828;3.228;2023-07-09T00:50:50;31.30;;;24.20;;
49578;SDS011;35483;50.828;3.228;2023-07-09T00:53:29;32.20;;;24.20;;
49578;SDS011;35483;50.828;3.228;2023-07-09T00:56:01;32.25;;;24.05;;
49578;SDS011;35483;50.828;3.228;2023-07-09T00:58:33;31.35;;;23.83;;
49578;SDS011;35483;50.828;3.228;2023-07-09T01:01:02;33.85;;;25.23;;
49578;SDS011;35483;50.828;3.228;2023-07-09T01:03:35;30.15;;;23.63;;
49578;SDS011;35483;50.828;3.228;2023-07-09T01:06:06;28.83;;;24.02;;
49578;SDS011;35483;50.828;3.228;2023-07-09T01:08:33;29.50;;;23.25;;
49578;SDS011;35483;50.828;3.228;2023-07-09T01:11:01;32.50;;;23.90;;
49578;SDS011;35483;50.828;3.228;2023-07-09T01:13:30;32.75;;;24.77;;
49578;SDS011;35483;50.828;3.228;2023-07-09T01:16:00;34.58;;;25.73;;
49578;SDS011;35483;50.828;3.228;2023-07-09T01:18:26;33.22;;;24.80;;
49578;SDS011;35483;50.828;3.228;2023-07-09T01:21:01;32.40;;;24.77;;
49578;SDS011;35483;50.828;3.228;2023-07-09T01:23:28;31.98;;;24.73;;
49578;SDS011;35483;50.828;3.228;2023-07-09T01:25:53;33.70;;;24.35;;
49578;SDS011;35483;50.828;3.228;2023-07-09T01:28:21;29.30;;;23.83;;
49578;SDS011;35483;50.828;3.228;2023-07-09T01:30:48;34.33;;;24.30;;
49578;SDS011;35483;50.828;3.228;2023-07-09T01:33:20;33.80;;;24.45;;
49578;SDS011;35483;50.828;3.228;2023-07-09T01:35:47;31.20;;;24.73;;
49578;SDS011;35483;50.828;3.228;2023-07-09T01:38:13;34.97;;;25.63;;
49578;SDS011;35483;50.828;3.228;2023-07-09T01:40:40;32.55;;;25.55;;
49578;SDS011;35483;50.828;3.228;2023-07-09T01:43:06;34.45;;;25.77;;
49578;SDS011;35483;50.828;3.228;2023-07-09T01:45:33;32.97;;;24.70;;
49578;SDS011;35483;50.828;3.228;2023-07-09T01:48:00;32.88;;;24.90;;
49578;SDS011;35483;50.828;3.228;2023-07-09T01:50:26;31.98;;;24.17;;
49578;SDS011;35483;50.828;3.228;2023-07-09T01:52:52;34.22;;;25.40;;
49578;SDS011;35483;50.828;3.228;2023-07-09T01:55:19;31.55;;;24.60;;
49578;SDS011;35483;50.828;3.228;2023-07-09T01:57:45;33.08;;;24.63;;
49578;SDS011;35483;50.828;3.228;2023-07-09T02:00:12;33.75;;;25.60;;
49578;SDS011;35483;50.828;3.228;2023-07-09T02:02:43;31.90;;;24.13;;
49578;SDS011;35483;50.828;3.228;2023-07-09T02:05:13;33.22;;;25.08;;
49578;SDS011;35483;50.828;3.228;2023-07-09T02:07:42;31.95;;;25.48;;
49578;SDS011;35483;50.828;3.228;2023-07-09T02:10:08;31.33;;;25.75;;
49578;SDS011;35483;50.828;3.228;2023-07-09T02:12:35;33.88;;;25.58;;
49578;SDS011;35483;50.828;3.228;2023-07-09T02:15:00;32.28;;;26.40;;
49578;SDS011;35483;50.828;3.228;2023-07-09T02:17:26;34.92;;;26.45;;
49578;SDS011;35483;50.828;3.228;2023-07-09T02:19:52;38.50;;;27.63;;
49578;SDS011;35483;50.828;3.228;2023-07-09T02:22:18;35.83;;;26.70;;
49578;SDS011;35483;50.828;3.228;2023-07-09T02:24:44;33.17;;;25.65;;
49578;SDS011;35483;50.828;3.228;2023-07-09T02:27:11;32.17;;;25.15;;
49578;SDS011;35483;50.828;3.228;2023-07-09T02:29:42;35.00;;;25.25;;
49578;SDS011;35483;50.828;3.228;2023-07-09T02:32:08;39.00;;;26.90;;
49578;SDS011;35483;50.828;3.228;2023-07-09T02:34:34;32.97;;;25.75;;
49578;SDS011;35483;50.828;3.228;2023-07-09T02:37:00;35.38;;;26.33;;
49578;SDS011;35483;50.828;3.228;2023-07-09T02:39:26;34.92;;;26.52;;
49578;SDS011;35483;50.828;3.228;2023-07-09T02:41:52;35.88;;;26.13;;
49578;SDS011;35483;50.828;3.228;2023-07-09T02:44:18;35.17;;;25.60;;
49578;SDS011;35483;50.828;3.228;2023-07-09T02:46:44;31.67;;;23.67;;
49578;SDS011;35483;50.828;3.228;2023-07-09T02:49:11;36.33;;;26.00;;
49578;SDS011;35483;50.828;3.228;2023-07-09T02:51:37;36.10;;;26.13;;
49578;SDS011;35483;50.828;3.228;2023-07-09T02:54:04;30.40;;;23.60;;
49578;SDS011;35483;50.828;3.228;2023-07-09T02:56:31;37.42;;;26.45;;
49578;SDS011;35483;50.828;3.228;2023-07-09T02:58:57;34.22;;;26.15;;
49578;SDS011;35483;50.828;3.228;2023-07-09T03:01:23;33.97;;;25.02;;
49578;SDS011;35483;50.828;3.228;2023-07-09T03:03:54;32.95;;;25.13;;
49578;SDS011;35483;50.828;3.228;2023-07-09T03:06:21;33.47;;;25.70;;
49578;SDS011;35483;50.828;3.228;2023-07-09T03:08:47;34.35;;;25.98;;
49578;SDS011;35483;50.828;3.228;2023-07-09T03:11:13;38.55;;;28.35;;
49578;SDS011;35483;50.828;3.228;2023-07-09T03:13:41;37.78;;;28.25;;
49578;SDS011;35483;50.828;3.228;2023-07-09T03:16:06;37.88;;;28.77;;
49578;SDS011;35483;50.828;3.228;2023-07-09T03:18:32;38.33;;;29.42;;
49578;SDS011;35483;50.828;3.228;2023-07-09T03:20:58;43.75;;;31.90;;
49578;SDS011;35483;50.828;3.228;2023-07-09T03:23:25;43.67;;;32.08;;
49578;SDS011;35483;50.828;3.228;2023-07-09T03:25:51;41.72;;;32.53;;
49578;SDS011;35483;50.828;3.228;2023-07-09T03:28:16;44.22;;;33.00;;
49578;SDS011;35483;50.828;3.228;2023-07-09T03:30:43;44.17;;;32.10;;
49578;SDS011;35483;50.828;3.228;2023-07-09T03:33:10;47.75;;;34.28;;
49578;SDS011;35483;50.828;3.228;2023-07-09T03:35:37;48.85;;;33.33;;
49578;SDS011;35483;50.828;3.228;2023-07-09T03:38:04;46.60;;;33.22;;
49578;SDS011;35483;50.828;3.228;2023-07-09T03:40:30;46.50;;;33.28;;
49578;SDS011;35483;50.828;3.228;2023-07-09T03:42:56;42.75;;;32.50;;
49578;SDS011;35483;50.828;3.228;2023-07-09T03:45:22;48.03;;;34.13;;
49578;SDS011;35483;50.828;3.228;2023-07-09T03:47:48;47.30;;;34.33;;
49578;SDS011;35483;50.828;3.228;2023-07-09T03:50:14;42.42;;;31.98;;
49578;SDS011;35483;50.828;3.228;2023-07-09T03:52:40;45.58;;;32.67;;
49578;SDS011;35483;50.828;3.228;2023-07-09T03:55:06;45.78;;;33.53;;
49578;SDS011;35483;50.828;3.228;2023-07-09T03:57:33;50.05;;;33.67;;
49578;SDS011;35483;50.828;3.228;2023-07-09T03:59:59;45.03;;;32.72;;
49578;SDS011;35483;50.828;3.228;2023-07-09T04:02:26;43.60;;;32.80;;
49578;SDS011;35483;50.828;3.228;2023-07-09T04:04:52;47.50;;;33.15;;
49578;SDS011;35483;50.828;3.228;2023-07-09T04:07:18;47.03;;;32.17;;
49578;SDS011;35483;50.828;3.228;2023-07-09T04:09:44;43.15;;;31.73;;
49578;SDS011;35483;50.828;3.228;2023-07-09T04:12:10;41.67;;;32.17;;
49578;SDS011;35483;50.828;3.228;2023-07-09T04:14:36;44.60;;;30.77;;
49578;SDS011;35483;50.828;3.228;2023-07-09T04:17:02;44.78;;;32.63;;
49578;SDS011;35483;50.828;3.228;2023-07-09T04:19:29;46.03;;;32.53;;
49578;SDS011;35483;50.828;3.228;2023-07-09T04:21:54;43.53;;;32.58;;
49578;SDS011;35483;50.828;3.228;2023-07-09T04:24:20;43.13;;;31.80;;
49578;SDS011;35483;50.828;3.228;2023-07-09T04:26:46;41.80;;;30.83;;
49578;SDS011;35483;50.828;3.228;2023-07-09T04:29:12;40.17;;;28.83;;
49578;SDS011;35483;50.828;3.228;2023-07-09T04:31:39;40.90;;;29.80;;
49578;SDS011;35483;50.828;3.228;2023-07-09T04:34:06;42.03;;;31.55;;
49578;SDS011;35483;50.828;3.228;2023-07-09T04:36:32;40.17;;;30.63;;
49578;SDS011;35483;50.828;3.228;2023-07-09T04:38:58;42.47;;;31.27;;
49578;SDS011;35483;50.828;3.228;2023-07-09T04:41:24;42.00;;;30.88;;
49578;SDS011;35483;50.828;3.228;2023-07-09T04:43:50;40.83;;;30.58;;
49578;SDS011;35483;50.828;3.228;2023-07-09T04:46:16;41.53;;;30.02;;
49578;SDS011;35483;50.828;3.228;2023-07-09T04:48:41;44.17;;;29.88;;
49578;SDS011;35483;50.828;3.228;2023-07-09T04:51:09;40.38;;;29.60;;
49578;SDS011;35483;50.828;3.228;2023-07-09T04:53:35;41.35;;;29.33;;
49578;SDS011;35483;50.828;3.228;2023-07-09T04:56:01;40.35;;;29.00;;
49578;SDS011;35483;50.828;3.228;2023-07-09T04:58:28;37.50;;;28.73;;
49578;SDS011;35483;50.828;3.228;2023-07-09T05:00:57;36.63;;;28.05;;
49578;SDS011;35483;50.828;3.228;2023-07-09T05:03:23;37.55;;;27.35;;
49578;SDS011;35483;50.828;3.228;2023-07-09T05:05:49;36.72;;;26.85;;
49578;SDS011;35483;50.828;3.228;2023-07-09T05:08:15;34.70;;;26.58;;
49578;SDS011;35483;50.828;3.228;2023-07-09T05:10:46;33.75;;;25.52;;
49578;SDS011;35483;50.828;3.228;2023-07-09T05:13:15;37.88;;;25.00;;
49578;SDS011;35483;50.828;3.228;2023-07-09T05:15:42;31.23;;;23.45;;
49578;SDS011;35483;50.828;3.228;2023-07-09T05:18:10;28.00;;;21.63;;
49578;SDS011;35483;50.828;3.228;2023-07-09T05:20:39;30.55;;;22.73;;
49578;SDS011;35483;50.828;3.228;2023-07-09T05:23:06;29.38;;;21.70;;
49578;SDS011;35483;50.828;3.228;2023-07-09T05:25:33;31.05;;;22.10;;
49578;SDS011;35483;50.828;3.228;2023-07-09T05:27:58;27.42;;;20.85;;
49578;SDS011;35483;50.828;3.228;2023-07-09T05:30:25;26.73;;;19.45;;
49578;SDS011;35483;50.828;3.228;2023-07-09T05:32:51;25.02;;;18.60;;
49578;SDS011;35483;50.828;3.228;2023-07-09T05:35:18;23.38;;;18.25;;
49578;SDS011;35483;50.828;3.228;2023-07-09T05:37:44;23.67;;;17.88;;
49578;SDS011;35483;50.828;3.228;2023-07-09T05:40:11;20.05;;;16.80;;
49578;SDS011;35483;50.828;3.228;2023-07-09T05:42:38;22.85;;;17.52;;
49578;SDS011;35483;50.828;3.228;2023-07-09T05:45:03;22.60;;;16.83;;
49578;SDS011;35483;50.828;3.228;2023-07-09T05:47:30;20.05;;;15.88;;
49578;SDS011;35483;50.828;3.228;2023-07-09T05:49:55;20.67;;;16.70;;
49578;SDS011;35483;50.828;3.228;2023-07-09T05:52:22;18.08;;;15.00;;
49578;SDS011;35483;50.828;3.228;2023-07-09T05:54:49;20.40;;;14.68;;
49578;SDS011;35483;50.828;3.228;2023-07-09T05:57:16;23.00;;;15.23;;
49578;SDS011;35483;50.828;3.228;2023-07-09T05:59:41;19.63;;;14.23;;
49578;SDS011;35483;50.828;3.228;2023-07-09T06:02:11;17.42;;;14.55;;
49578;SDS011;35483;50.828;3.228;2023-07-09T06:04:38;18.13;;;14.63;;
49578;SDS011;35483;50.828;3.228;2023-07-09T06:07:04;15.98;;;13.80;;
49578;SDS011;35483;50.828;3.228;2023-07-09T06:09:30;18.30;;;13.85;;
49578;SDS011;35483;50.828;3.228;2023-07-09T06:11:56;16.30;;;12.65;;
49578;SDS011;35483;50.828;3.228;2023-07-09T06:14:24;17.13;;;12.88;;
49578;SDS011;35483;50.828;3.228;2023-07-09T06:16:50;15.35;;;12.10;;
49578;SDS011;35483;50.828;3.228;2023-07-09T06:19:16;14.43;;;11.10;;
49578;SDS011;35483;50.828;3.228;2023-07-09T06:21:42;14.95;;;11.68;;
49578;SDS011;35483;50.828;3.228;2023-07-09T06:24:08;14.75;;;11.30;;
49578;SDS011;35483;50.828;3.228;2023-07-09T06:26:34;13.68;;;10.98;;
49578;SDS011;35483;50.828;3.228;2023-07-09T06:29:00;12.80;;;9.65;;
49578;SDS011;35483;50.828;3.228;2023-07-09T06:31:26;14.15;;;10.32;;
49578;SDS011;35483;50.828;3.228;2023-07-09T06:33:52;11.82;;;9.30;;
49578;SDS011;35483;50.828;3.228;2023-07-09T06:36:18;11.20;;;9.27;;
49578;SDS011;35483;50.828;3.228;2023-07-09T06:38:44;14.02;;;9.70;;
49578;SDS011;35483;50.828;3.228;2023-07-09T06:41:11;11.10;;;8.88;;
49578;SDS011;35483;50.828;3.228;2023-07-09T06:43:37;17.38;;;9.00;;
49578;SDS011;35483;50.828;3.228;2023-07-09T06:46:04;13.57;;;9.80;;
49578;SDS011;35483;50.828;3.228;2023-07-09T06:48:30;10.50;;;8.45;;
49578;SDS011;35483;50.828;3.228;2023-07-09T06:50:57;10.50;;;7.65;;
49578;SDS011;35483;50.828;3.228;2023-07-09T06:53:23;10.02;;;7.55;;
49578;SDS011;35483;50.828;3.228;2023-07-09T06:55:49;9.57;;;8.07;;
49578;SDS011;35483;50.828;3.228;2023-07-09T06:58:18;13.35;;;7.97;;
49578;SDS011;35483;50.828;3.228;2023-07-09T07:00:45;9.35;;;7.28;;
49578;SDS011;35483;50.828;3.228;2023-07-09T07:03:14;12.38;;;8.57;;
49578;SDS011;35483;50.828;3.228;2023-07-09T07:05:46;11.15;;;8.65;;
49578;SDS011;35483;50.828;3.228;2023-07-09T07:08:18;10.90;;;8.68;;
49578;SDS011;35483;50.828;3.228;2023-07-09T07:10:47;14.07;;;8.95;;
49578;SDS011;35483;50.828;3.228;2023-07-09T07:13:13;11.13;;;7.88;;
49578;SDS011;35483;50.828;3.228;2023-07-09T07:15:39;8.43;;;7.25;;
49578;SDS011;35483;50.828;3.228;2023-07-09T07:18:05;8.40;;;7.05;;
49578;SDS011;35483;50.828;3.228;2023-07-09T07:20:32;8.95;;;7.03;;
49578;SDS011;35483;50.828;3.228;2023-07-09T07:22:58;7.68;;;6.20;;
49578;SDS011;35483;50.828;3.228;2023-07-09T07:25:25;8.88;;;6.47;;
49578;SDS011;35483;50.828;3.228;2023-07-09T07:27:51;10.55;;;6.68;;
49578;SDS011;35483;50.828;3.228;2023-07-09T07:30:18;7.85;;;6.25;;
49578;SDS011;35483;50.828;3.228;2023-07-09T07:32:45;10.50;;;6.68;;
49578;SDS011;35483;50.828;3.228;2023-07-09T07:35:13;8.13;;;6.60;;
49578;SDS011;35483;50.828;3.228;2023-07-09T07:37:41;8.98;;;6.05;;
49578;SDS011;35483;50.828;3.228;2023-07-09T07:40:08;7.63;;;5.80;;
49578;SDS011;35483;50.828;3.228;2023-07-09T07:42:35;8.45;;;6.75;;
49578;SDS011;35483;50.828;3.228;2023-07-09T07:45:01;9.65;;;6.38;;
49578;SDS011;35483;50.828;3.228;2023-07-09T07:47:28;6.40;;;5.32;;
49578;SDS011;35483;50.828;3.228;2023-07-09T07:49:54;8.15;;;6.00;;
49578;SDS011;35483;50.828;3.228;2023-07-09T07:52:20;8.02;;;6.15;;
49578;SDS011;35483;50.828;3.228;2023-07-09T07:54:46;7.05;;;5.53;;
49578;SDS011;35483;50.828;3.228;2023-07-09T07:57:12;6.45;;;5.30;;
49578;SDS011;35483;50.828;3.228;2023-07-09T07:59:37;7.22;;;5.28;;
49578;SDS011;35483;50.828;3.228;2023-07-09T08:02:04;6.80;;;5.47;;
49578;SDS011;35483;50.828;3.228;2023-07-09T08:04:32;6.57;;;4.88;;
49578;SDS011;35483;50.828;3.228;2023-07-09T08:06:57;8.73;;;5.90;;
49578;SDS011;35483;50.828;3.228;2023-07-09T08:09:24;6.78;;;5.38;;
49578;SDS011;35483;50.828;3.228;2023-07-09T08:11:50;8.05;;;5.72;;
49578;SDS011;35483;50.828;3.228;2023-07-09T08:14:16;8.85;;;5.53;;
49578;SDS011;35483;50.828;3.228;2023-07-09T08:16:42;7.47;;;5.60;;
49578;SDS011;35483;50.828;3.228;2023-07-09T08:19:08;7.03;;;5.00;;
49578;SDS011;35483;50.828;3.228;2023-07-09T08:21:33;6.38;;;5.55;;
49578;SDS011;35483;50.828;3.228;2023-07-09T08:23:59;9.48;;;5.00;;
49578;SDS011;35483;50.828;3.228;2023-07-09T08:26:25;7.00;;;5.05;;
49578;SDS011;35483;50.828;3.228;2023-07-09T08:28:51;7.40;;;5.60;;
49578;SDS011;35483;50.828;3.228;2023-07-09T08:31:17;8.13;;;5.72;;
49578;SDS011;35483;50.828;3.228;2023-07-09T08:33:43;7.55;;;5.25;;
49578;SDS011;35483;50.828;3.228;2023-07-09T08:36:08;7.75;;;5.35;;
49578;SDS011;35483;50.828;3.228;2023-07-09T08:38:34;10.98;;;5.70;;
49578;SDS011;35483;50.828;3.228;2023-07-09T08:41:01;5.72;;;5.03;;
49578;SDS011;35483;50.828;3.228;2023-07-09T08:43:35;6.50;;;4.47;;
49578;SDS011;35483;50.828;3.228;2023-07-09T08:46:21;5.90;;;4.32;;
49578;SDS011;35483;50.828;3.228;2023-07-09T08:49:23;6.88;;;4.72;;
49578;SDS011;35483;50.828;3.228;2023-07-09T08:51:58;5.95;;;4.50;;
49578;SDS011;35483;50.828;3.228;2023-07-09T08:54:26;7.93;;;5.10;;
49578;SDS011;35483;50.828;3.228;2023-07-09T08:56:57;8.10;;;5.15;;
49578;SDS011;35483;50.828;3.228;2023-07-09T08:59:32;6.68;;;4.40;;
49578;SDS011;35483;50.828;3.228;2023-07-09T09:01:59;6.57;;;4.43;;
49578;SDS011;35483;50.828;3.228;2023-07-09T09:04:29;5.97;;;4.25;;
49578;SDS011;35483;50.828;3.228;2023-07-09T09:10:00;5.88;;;4.25;;
49578;SDS011;35483;50.828;3.228;2023-07-09T09:12:29;6.80;;;4.80;;
49578;SDS011;35483;50.828;3.228;2023-07-09T09:15:13;6.53;;;4.50;;
49578;SDS011;35483;50.828;3.228;2023-07-09T09:17:41;6.82;;;4.40;;
49578;SDS011;35483;50.828;3.228;2023-07-09T09:20:25;6.05;;;3.90;;
49578;SDS011;35483;50.828;3.228;2023-07-09T09:22:54;5.32;;;4.28;;
49578;SDS011;35483;50.828;3.228;2023-07-09T09:25:23;7.20;;;4.43;;
49578;SDS011;35483;50.828;3.228;2023-07-09T09:27:53;6.43;;;4.38;;
49578;SDS011;35483;50.828;3.228;2023-07-09T09:30:20;5.65;;;4.47;;
49578;SDS011;35483;50.828;3.228;2023-07-09T09:32:50;5.55;;;4.20;;
49578;SDS011;35483;50.828;3.228;2023-07-09T09:35:33;8.00;;;4.70;;
49578;SDS011;35483;50.828;3.228;2023-07-09T09:38:09;7.47;;;5.32;;
49578;SDS011;35483;50.828;3.228;2023-07-09T09:40:41;9.68;;;5.82;;
49578;SDS011;35483;50.828;3.228;2023-07-09T09:43:14;11.68;;;5.65;;
49578;SDS011;35483;50.828;3.228;2023-07-09T09:45:43;6.10;;;4.60;;
49578;SDS011;35483;50.828;3.228;2023-07-09T09:48:29;8.60;;;4.80;;
49578;SDS011;35483;50.828;3.228;2023-07-09T09:50:57;8.52;;;4.40;;
49578;SDS011;35483;50.828;3.228;2023-07-09T09:53:26;5.35;;;4.10;;
49578;SDS011;35483;50.828;3.228;2023-07-09T09:55:55;6.95;;;4.35;;
49578;SDS011;35483;50.828;3.228;2023-07-09T09:58:25;7.63;;;4.22;;
49578;SDS011;35483;50.828;3.228;2023-07-09T10:00:55;6.63;;;4.40;;
49578;SDS011;35483;50.828;3.228;2023-07-09T10:03:32;7.05;;;5.20;;
49578;SDS011;35483;50.828;3.228;2023-07-09T10:06:00;6.88;;;5.00;;
49578;SDS011;35483;50.828;3.228;2023-07-09T10:16:51;7.97;;;6.72;;
49578;SDS011;35483;50.828;3.228;2023-07-09T10:25:28;13.40;;;8.00;;
49578;SDS011;35483;50.828;3.228;2023-07-09T10:31:16;10.15;;;7.55;;
49578;SDS011;35483;50.828;3.228;2023-07-09T10:33:55;10.70;;;8.48;;
49578;SDS011;35483;50.828;3.228;2023-07-09T10:39:03;12.13;;;9.45;;
49578;SDS011;35483;50.828;3.228;2023-07-09T10:41:35;12.13;;;9.40;;
49578;SDS011;35483;50.828;3.228;2023-07-09T10:46:35;14.43;;;10.38;;
49578;SDS011;35483;50.828;3.228;2023-07-09T10:49:04;11.80;;;9.60;;
49578;SDS011;35483;50.828;3.228;2023-07-09T10:51:51;11.63;;;9.48;;
49578;SDS011;35483;50.828;3.228;2023-07-09T10:54:32;9.82;;;7.45;;
49578;SDS011;35483;50.828;3.228;2023-07-09T10:57:30;11.82;;;8.68;;
49578;SDS011;35483;50.828;3.228;2023-07-09T11:00:04;11.93;;;8.93;;
49578;SDS011;35483;50.828;3.228;2023-07-09T11:02:32;11.43;;;8.38;;
49578;SDS011;35483;50.828;3.228;2023-07-09T11:05:04;12.32;;;8.63;;
49578;SDS011;35483;50.828;3.228;2023-07-09T11:07:44;12.73;;;8.98;;
49578;SDS011;35483;50.828;3.228;2023-07-09T11:10:32;13.07;;;9.55;;
49578;SDS011;35483;50.828;3.228;2023-07-09T11:13:22;12.48;;;10.00;;
49578;SDS011;35483;50.828;3.228;2023-07-09T11:16:02;9.77;;;8.75;;
49578;SDS011;35483;50.828;3.228;2023-07-09T11:18:31;10.75;;;7.65;;
49578;SDS011;35483;50.828;3.228;2023-07-09T11:21:06;10.27;;;7.55;;
49578;SDS011;35483;50.828;3.228;2023-07-09T11:26:32;10.65;;;7.68;;
49578;SDS011;35483;50.828;3.228;2023-07-09T11:31:40;9.52;;;7.10;;
49578;SDS011;35483;50.828;3.228;2023-07-09T11:34:14;9.98;;;7.20;;
49578;SDS011;35483;50.828;3.228;2023-07-09T11:42:31;8.32;;;6.15;;
49578;SDS011;35483;50.828;3.228;2023-07-09T11:45:09;9.70;;;6.60;;
49578;SDS011;35483;50.828;3.228;2023-07-09T11:47:38;8.43;;;6.32;;
49578;SDS011;35483;50.828;3.228;2023-07-09T11:53:04;9.80;;;6.38;;
49578;SDS011;35483;50.828;3.228;2023-07-09T11:55:51;10.38;;;6.38;;
49578;SDS011;35483;50.828;3.228;2023-07-09T11:58:17;8.88;;;6.43;;
49578;SDS011;35483;50.828;3.228;2023-07-09T12:00:57;10.70;;;7.68;;
49578;SDS011;35483;50.828;3.228;2023-07-09T12:03:34;12.63;;;6.50;;
49578;SDS011;35483;50.828;3.228;2023-07-09T12:06:16;7.90;;;6.30;;
49578;SDS011;35483;50.828;3.228;2023-07-09T12:08:45;8.63;;;5.95;;
49578;SDS011;35483;50.828;3.228;2023-07-09T12:11:21;10.77;;;6.68;;
49578;SDS011;35483;50.828;3.228;2023-07-09T12:14:00;11.55;;;6.75;;
49578;SDS011;35483;50.828;3.228;2023-07-09T12:18:58;10.32;;;6.72;;
49578;SDS011;35483;50.828;3.228;2023-07-09T12:21:24;7.60;;;5.78;;
49578;SDS011;35483;50.828;3.228;2023-07-09T12:23:50;9.60;;;6.30;;
49578;SDS011;35483;50.828;3.228;2023-07-09T12:26:18;8.35;;;6.60;;
49578;SDS011;35483;50.828;3.228;2023-07-09T12:28:51;9.40;;;7.45;;
49578;SDS011;35483;50.828;3.228;2023-07-09T12:31:20;11.23;;;7.63;;
49578;SDS011;35483;50.828;3.228;2023-07-09T12:33:55;11.02;;;7.75;;
49578;SDS011;35483;50.828;3.228;2023-07-09T12:36:23;8.98;;;6.85;;
49578;SDS011;35483;50.828;3.228;2023-07-09T12:38:51;10.18;;;6.90;;
49578;SDS011;35483;50.828;3.228;2023-07-09T12:43:52;9.40;;;6.53;;
49578;SDS011;35483;50.828;3.228;2023-07-09T12:46:19;8.43;;;5.90;;
49578;SDS011;35483;50.828;3.228;2023-07-09T12:48:46;5.88;;;5.28;;
49578;SDS011;35483;50.828;3.228;2023-07-09T12:51:13;7.78;;;5.53;;
49578;SDS011;35483;50.828;3.228;2023-07-09T12:53:43;8.60;;;6.18;;
49578;SDS011;35483;50.828;3.228;2023-07-09T12:56:11;7.68;;;6.88;;
49578;SDS011;35483;50.828;3.228;2023-07-09T12:58:38;9.60;;;5.97;;
49578;SDS011;35483;50.828;3.228;2023-07-09T13:01:05;7.70;;;5.03;;
49578;SDS011;35483;50.828;3.228;2023-07-09T13:03:38;6.78;;;5.13;;
49578;SDS011;35483;50.828;3.228;2023-07-09T13:06:05;8.80;;;4.97;;
49578;SDS011;35483;50.828;3.228;2023-07-09T13:08:54;7.85;;;4.82;;
49578;SDS011;35483;50.828;3.228;2023-07-09T13:11:24;6.68;;;4.63;;
49578;SDS011;35483;50.828;3.228;2023-07-09T13:13:55;6.88;;;4.45;;
49578;SDS011;35483;50.828;3.228;2023-07-09T13:16:22;8.50;;;5.50;;
49578;SDS011;35483;50.828;3.228;2023-07-09T13:18:47;7.93;;;5.82;;
49578;SDS011;35483;50.828;3.228;2023-07-09T13:21:14;8.50;;;5.80;;
49578;SDS011;35483;50.828;3.228;2023-07-09T13:23:42;10.30;;;6.53;;
49578;SDS011;35483;50.828;3.228;2023-07-09T13:26:08;8.85;;;6.70;;
49578;SDS011;35483;50.828;3.228;2023-07-09T13:28:34;8.90;;;6.15;;
49578;SDS011;35483;50.828;3.228;2023-07-09T13:31:01;7.90;;;5.55;;
49578;SDS011;35483;50.828;3.228;2023-07-09T13:33:36;9.43;;;6.60;;
49578;SDS011;35483;50.828;3.228;2023-07-09T13:36:02;8.45;;;6.00;;
49578;SDS011;35483;50.828;3.228;2023-07-09T13:38:32;8.10;;;5.72;;
49578;SDS011;35483;50.828;3.228;2023-07-09T13:40:59;6.20;;;5.32;;
49578;SDS011;35483;50.828;3.228;2023-07-09T13:43:34;9.98;;;6.30;;
49578;SDS011;35483;50.828;3.228;2023-07-09T13:46:02;11.50;;;5.82;;
49578;SDS011;35483;50.828;3.228;2023-07-09T13:48:32;8.77;;;6.05;;
49578;SDS011;35483;50.828;3.228;2023-07-09T13:50:59;7.60;;;6.38;;
49578;SDS011;35483;50.828;3.228;2023-07-09T13:53:28;8.52;;;6.38;;
49578;SDS011;35483;50.828;3.228;2023-07-09T13:55:56;9.73;;;6.60;;
49578;SDS011;35483;50.828;3.228;2023-07-09T13:58:23;11.00;;;7.55;;
49578;SDS011;35483;50.828;3.228;2023-07-09T14:00:50;6.22;;;5.55;;
49578;SDS011;35483;50.828;3.228;2023-07-09T14:03:25;6.70;;;5.68;;
49578;SDS011;35483;50.828;3.228;2023-07-09T14:05:53;8.00;;;5.35;;
49578;SDS011;35483;50.828;3.228;2023-07-09T14:08:20;7.97;;;5.22;;
49578;SDS011;35483;50.828;3.228;2023-07-09T14:10:47;7.18;;;5.22;;
49578;SDS011;35483;50.828;3.228;2023-07-09T14:13:15;6.78;;;4.57;;
49578;SDS011;35483;50.828;3.228;2023-07-09T14:15:42;6.68;;;4.40;;
49578;SDS011;35483;50.828;3.228;2023-07-09T14:18:11;5.72;;;4.25;;
49578;SDS011;35483;50.828;3.228;2023-07-09T14:20:39;8.98;;;4.40;;
49578;SDS011;35483;50.828;3.228;2023-07-09T14:23:05;5.47;;;4.70;;
49578;SDS011;35483;50.828;3.228;2023-07-09T14:25:33;10.07;;;4.53;;
49578;SDS011;35483;50.828;3.228;2023-07-09T14:27:58;5.25;;;3.97;;
49578;SDS011;35483;50.828;3.228;2023-07-09T14:30:24;5.78;;;3.75;;
49578;SDS011;35483;50.828;3.228;2023-07-09T14:32:51;7.80;;;4.35;;
49578;SDS011;35483;50.828;3.228;2023-07-09T14:35:21;8.35;;;4.95;;
49578;SDS011;35483;50.828;3.228;2023-07-09T14:37:48;6.50;;;4.10;;
49578;SDS011;35483;50.828;3.228;2023-07-09T14:40:16;5.03;;;3.65;;
49578;SDS011;35483;50.828;3.228;2023-07-09T14:42:43;5.25;;;2.85;;
49578;SDS011;35483;50.828;3.228;2023-07-09T14:45:17;5.95;;;2.85;;
49578;SDS011;35483;50.828;3.228;2023-07-09T14:47:44;4.28;;;2.72;;
49578;SDS011;35483;50.828;3.228;2023-07-09T14:50:10;5.45;;;3.28;;
49578;SDS011;35483;50.828;3.228;2023-07-09T14:52:36;6.50;;;3.58;;
49578;SDS011;35483;50.828;3.228;2023-07-09T14:55:03;6.00;;;3.55;;
49578;SDS011;35483;50.828;3.228;2023-07-09T14:57:29;5.07;;;3.05;;
49578;SDS011;35483;50.828;3.228;2023-07-09T14:59:56;3.83;;;2.65;;
49578;SDS011;35483;50.828;3.228;2023-07-09T15:05:03;6.07;;;3.35;;
49578;SDS011;35483;50.828;3.228;2023-07-09T15:07:35;6.18;;;3.40;;
49578;SDS011;35483;50.828;3.228;2023-07-09T15:10:01;4.10;;;2.70;;
49578;SDS011;35483;50.828;3.228;2023-07-09T15:12:32;5.25;;;2.80;;
49578;SDS011;35483;50.828;3.228;2023-07-09T15:17:37;6.18;;;2.65;;
49578;SDS011;35483;50.828;3.228;2023-07-09T15:20:02;6.07;;;3.38;;
49578;SDS011;35483;50.828;3.228;2023-07-09T15:22:33;3.92;;;3.00;;
49578;SDS011;35483;50.828;3.228;2023-07-09T15:25:00;4.88;;;2.45;;
49578;SDS011;35483;50.828;3.228;2023-07-09T15:27:26;4.68;;;2.28;;
49578;SDS011;35483;50.828;3.228;2023-07-09T15:29:52;3.42;;;1.98;;
49578;SDS011;35483;50.828;3.228;2023-07-09T15:32:18;3.08;;;1.73;;